createdAt,value
2022-10-18T00:01:00.764Z,4.25
2022-10-18T00:03:28.708Z,4.63
2022-10-18T00:05:56.626Z,4.72
2022-10-18T00:08:26.736Z,5.40
2022-10-18T00:10:54.793Z,4.60
2022-10-18T00:13:23.500Z,4.40
2022-10-18T00:15:52.720Z,4.45
2022-10-18T00:18:21.426Z,5.07
2022-10-18T00:20:58.285Z,4.75
2022-10-18T00:23:28.087Z,4.97
2022-10-18T00:26:14.425Z,4.65
2022-10-18T00:28:43.361Z,4.15
2022-10-18T00:31:13.962Z,4.82
2022-10-18T00:33:42.356Z,4.57
2022-10-18T00:36:10.774Z,4.70
2022-10-18T00:38:40.357Z,4.97
2022-10-18T00:41:10.631Z,3.97
2022-10-18T00:43:55.714Z,4.22
2022-10-18T00:46:24.401Z,4.30
2022-10-18T00:51:31.934Z,4.05
2022-10-18T00:54:01.377Z,4.25
2022-10-18T00:56:29.609Z,4.50
2022-10-18T00:58:58.776Z,4.20
2022-10-18T01:01:28.429Z,4.45
2022-10-18T01:03:57.345Z,4.15
2022-10-18T01:06:26.008Z,4.78
2022-10-18T01:09:17.912Z,4.25
2022-10-18T01:12:00.648Z,3.85
2022-10-18T01:14:42.630Z,4.45
2022-10-18T01:17:17.453Z,4.00
2022-10-18T01:20:03.628Z,4.38
2022-10-18T01:22:38.905Z,4.45
2022-10-18T01:25:20.820Z,4.57
2022-10-18T01:27:54.162Z,4.25
2022-10-18T01:30:52.829Z,4.32
2022-10-18T01:33:27.773Z,4.30
2022-10-18T01:36:00.681Z,4.47
2022-10-18T01:38:31.475Z,4.35
2022-10-18T01:41:00.377Z,4.25
2022-10-18T01:43:30.980Z,4.50
2022-10-18T01:46:01.635Z,4.28
2022-10-18T01:48:30.479Z,4.15
2022-10-18T01:50:58.722Z,3.97
2022-10-18T01:53:31.340Z,4.38
2022-10-18T01:56:15.941Z,4.47
2022-10-18T01:58:51.620Z,4.32
2022-10-18T02:01:28.602Z,4.40
2022-10-18T02:04:01.943Z,4.15
2022-10-18T02:06:33.007Z,4.72
2022-10-18T02:09:05.730Z,4.78
2022-10-18T02:11:34.849Z,4.68
2022-10-18T02:14:08.110Z,4.50
2022-10-18T02:16:41.664Z,3.80
2022-10-18T02:19:14.610Z,4.65
2022-10-18T02:21:44.418Z,5.88
2022-10-18T02:24:15.113Z,11.73
2022-10-18T02:26:43.435Z,7.63
2022-10-18T02:29:12.170Z,7.30
2022-10-18T02:31:45.853Z,5.38
2022-10-18T02:34:20.775Z,5.35
2022-10-18T02:36:52.083Z,5.22
2022-10-18T02:39:23.978Z,5.60
2022-10-18T02:41:51.801Z,5.85
2022-10-18T02:44:19.611Z,5.85
2022-10-18T02:46:49.134Z,7.03
2022-10-18T02:49:16.968Z,8.80
2022-10-18T02:51:44.968Z,8.13
2022-10-18T02:54:12.765Z,8.70
2022-10-18T02:56:40.564Z,8.02
2022-10-18T02:59:08.401Z,8.35
2022-10-18T03:01:36.866Z,6.75
2022-10-18T03:04:06.576Z,6.00
2022-10-18T03:06:35.677Z,5.28
2022-10-18T03:09:04.719Z,6.72
2022-10-18T03:11:32.797Z,7.50
2022-10-18T03:14:00.639Z,7.50
2022-10-18T03:16:28.529Z,7.95
2022-10-18T03:18:56.390Z,7.85
2022-10-18T03:21:25.541Z,7.28
2022-10-18T03:23:53.395Z,6.20
2022-10-18T03:26:21.582Z,6.88
2022-10-18T03:28:49.430Z,6.40
2022-10-18T03:31:17.496Z,6.40
2022-10-18T03:33:45.378Z,6.43
2022-10-18T03:36:13.345Z,5.72
2022-10-18T03:38:42.581Z,6.07
2022-10-18T03:41:10.520Z,5.50
2022-10-18T03:43:38.316Z,6.05
2022-10-18T03:46:06.558Z,6.15
2022-10-18T03:48:34.393Z,6.45
2022-10-18T03:51:02.233Z,6.22
2022-10-18T03:53:30.056Z,6.03
2022-10-18T03:55:59.242Z,5.10
2022-10-18T03:58:27.105Z,5.00
2022-10-18T04:00:55.985Z,4.78
2022-10-18T04:03:24.327Z,3.88
2022-10-18T04:05:52.429Z,3.88
2022-10-18T04:08:20.331Z,4.53
2022-10-18T04:10:49.153Z,4.22
2022-10-18T04:13:18.296Z,4.00
2022-10-18T04:15:46.077Z,4.35
2022-10-18T04:18:13.883Z,3.88
2022-10-18T04:20:41.664Z,4.28
2022-10-18T04:23:09.459Z,3.47
2022-10-18T04:25:37.317Z,4.07
2022-10-18T04:28:05.362Z,4.30
2022-10-18T04:30:34.500Z,4.60
2022-10-18T04:33:02.401Z,4.50
2022-10-18T04:35:30.192Z,3.65
2022-10-18T04:37:57.972Z,4.38
2022-10-18T04:40:25.744Z,4.35
2022-10-18T04:42:53.546Z,3.30
2022-10-18T04:45:21.346Z,4.07
2022-10-18T04:47:50.499Z,3.85
2022-10-18T04:50:18.426Z,3.88
2022-10-18T04:52:46.311Z,3.90
2022-10-18T04:55:14.113Z,3.67
2022-10-18T04:57:41.934Z,3.28
2022-10-18T05:00:10.374Z,3.80
2022-10-18T05:02:38.201Z,3.85
2022-10-18T05:05:10.372Z,3.60
2022-10-18T05:07:41.110Z,3.10
2022-10-18T05:10:09.997Z,3.40
2022-10-18T05:12:37.820Z,3.08
2022-10-18T05:15:06.525Z,3.20
2022-10-18T05:17:34.374Z,3.30
2022-10-18T05:20:02.223Z,3.03
2022-10-18T05:22:31.654Z,2.97
2022-10-18T05:24:59.710Z,3.28
2022-10-18T05:27:27.580Z,3.00
2022-10-18T05:29:55.398Z,3.33
2022-10-18T05:32:23.340Z,3.50
2022-10-18T05:34:51.160Z,3.35
2022-10-18T05:37:19.417Z,3.17
2022-10-18T05:39:48.560Z,3.20
2022-10-18T05:42:16.361Z,3.13
2022-10-18T05:44:44.203Z,3.15
2022-10-18T05:47:12.060Z,3.40
2022-10-18T05:49:39.861Z,3.10
2022-10-18T05:52:07.676Z,3.22
2022-10-18T05:54:35.485Z,3.05
2022-10-18T05:57:04.804Z,2.67
2022-10-18T05:59:32.615Z,2.92
2022-10-18T06:02:00.433Z,3.20
2022-10-18T06:04:28.206Z,2.47
2022-10-18T06:06:56.250Z,3.22
2022-10-18T06:09:24.157Z,2.97
2022-10-18T06:11:52.020Z,3.00
2022-10-18T06:14:21.218Z,3.13
2022-10-18T06:16:49.019Z,3.15
2022-10-18T06:19:17.178Z,3.15
2022-10-18T06:21:45.186Z,3.50
2022-10-18T06:24:12.991Z,3.70
2022-10-18T06:26:40.838Z,3.67
2022-10-18T06:29:08.799Z,2.83
2022-10-18T06:31:38.019Z,3.42
2022-10-18T06:34:05.857Z,3.25
2022-10-18T06:36:33.793Z,3.75
2022-10-18T06:39:02.527Z,3.20
2022-10-18T06:41:30.331Z,3.50
2022-10-18T06:44:01.690Z,3.30
2022-10-18T06:46:29.473Z,3.53
2022-10-18T06:48:58.647Z,3.15
2022-10-18T06:51:26.449Z,4.03
2022-10-18T06:54:06.205Z,3.60
2022-10-18T06:56:42.001Z,3.80
2022-10-18T06:59:09.849Z,3.15
2022-10-18T07:01:37.857Z,3.25
2022-10-18T07:04:07.186Z,3.30
2022-10-18T07:06:35.122Z,2.95
2022-10-18T07:09:03.882Z,3.40
2022-10-18T07:11:31.735Z,3.65
2022-10-18T07:14:04.057Z,4.25
2022-10-18T07:19:00.342Z,3.78
2022-10-18T07:21:29.770Z,4.30
2022-10-18T07:23:58.123Z,4.18
2022-10-18T07:26:29.056Z,3.75
2022-10-18T07:28:59.110Z,3.72
2022-10-18T07:31:27.673Z,4.15
2022-10-18T07:33:55.719Z,4.97
2022-10-18T07:36:24.553Z,4.03
2022-10-18T07:38:54.402Z,4.10
2022-10-18T07:41:22.310Z,4.00
2022-10-18T07:43:51.778Z,3.58
2022-10-18T07:46:21.154Z,3.70
2022-10-18T07:48:49.280Z,3.72
2022-10-18T07:51:17.402Z,3.88
2022-10-18T07:53:45.242Z,3.35
2022-10-18T07:56:16.830Z,3.78
2022-10-18T07:58:45.472Z,3.60
2022-10-18T08:01:14.689Z,3.92
2022-10-18T08:03:43.153Z,3.38
2022-10-18T08:06:12.565Z,3.70
2022-10-18T08:08:41.370Z,3.83
2022-10-18T08:11:11.295Z,3.47
2022-10-18T08:13:40.554Z,3.70
2022-10-18T08:16:10.256Z,3.75
2022-10-18T08:18:39.006Z,3.30
2022-10-18T08:21:09.297Z,4.43
2022-10-18T08:23:38.011Z,4.00
2022-10-18T08:26:07.840Z,3.58
2022-10-18T08:28:36.766Z,3.92
2022-10-18T08:31:07.353Z,3.75
2022-10-18T08:33:35.864Z,4.72
2022-10-18T08:36:06.658Z,3.97
2022-10-18T08:38:35.733Z,4.00
2022-10-18T08:41:18.841Z,4.65
2022-10-18T08:43:52.187Z,3.90
2022-10-18T08:46:21.399Z,3.67
2022-10-18T08:48:53.197Z,3.85
2022-10-18T08:51:29.888Z,4.25
2022-10-18T08:54:04.413Z,4.07
2022-10-18T08:56:34.461Z,4.30
2022-10-18T08:59:03.977Z,4.60
2022-10-18T09:01:45.759Z,3.78
2022-10-18T09:04:29.585Z,4.07
2022-10-18T09:07:13.982Z,4.82
2022-10-18T09:09:47.560Z,3.63
2022-10-18T09:12:35.966Z,3.45
2022-10-18T09:15:16.996Z,4.03
2022-10-18T09:18:00.691Z,4.05
2022-10-18T09:20:32.596Z,3.65
2022-10-18T09:23:06.641Z,3.70
2022-10-18T09:25:38.072Z,3.80
2022-10-18T09:28:16.917Z,4.00
2022-10-18T09:30:58.695Z,3.17
2022-10-18T09:33:43.411Z,4.20
2022-10-18T09:36:15.409Z,3.80
2022-10-18T09:38:46.296Z,3.60
2022-10-18T09:41:19.290Z,5.15
2022-10-18T09:43:53.323Z,3.25
2022-10-18T09:46:24.441Z,4.43
2022-10-18T09:48:57.820Z,4.85
2022-10-18T09:51:29.969Z,3.55
2022-10-18T09:56:35.543Z,4.10
2022-10-18T09:59:05.704Z,3.50
2022-10-18T10:01:34.232Z,4.03
2022-10-18T10:04:03.418Z,3.72
2022-10-18T10:06:34.529Z,3.03
2022-10-18T10:09:07.205Z,3.55
2022-10-18T10:11:38.016Z,3.80
2022-10-18T10:14:10.569Z,3.33
2022-10-18T10:16:47.727Z,4.15
2022-10-18T10:19:23.275Z,3.65
2022-10-18T10:21:55.609Z,3.80
2022-10-18T10:24:30.331Z,3.63
2022-10-18T10:27:04.166Z,3.45
2022-10-18T10:29:53.828Z,3.03
2022-10-18T10:32:23.196Z,3.85
2022-10-18T10:34:52.735Z,3.70
2022-10-18T10:37:35.621Z,3.40
2022-10-18T10:40:25.269Z,3.67
2022-10-18T10:45:58.846Z,3.05
2022-10-18T10:48:32.366Z,3.53
2022-10-18T10:51:05.928Z,3.42
2022-10-18T10:53:46.781Z,3.70
2022-10-18T10:56:24.516Z,3.72
2022-10-18T10:58:54.191Z,3.40
2022-10-18T11:01:28.648Z,3.72
2022-10-18T11:03:58.641Z,3.83
2022-10-18T11:06:51.094Z,3.67
2022-10-18T11:09:40.244Z,3.88
2022-10-18T11:12:29.285Z,3.67
2022-10-18T11:15:05.582Z,3.53
2022-10-18T11:17:38.308Z,3.80
2022-10-18T11:20:16.410Z,3.08
2022-10-18T11:22:54.200Z,3.22
2022-10-18T11:25:24.545Z,3.28
2022-10-18T11:27:58.562Z,3.20
2022-10-18T11:30:42.027Z,3.15
2022-10-18T11:33:33.611Z,3.90
2022-10-18T11:36:10.085Z,2.80
2022-10-18T11:38:50.569Z,3.30
2022-10-18T11:41:31.131Z,3.78
2022-10-18T11:44:03.066Z,2.97
2022-10-18T11:46:43.045Z,3.28
2022-10-18T11:49:22.262Z,3.42
2022-10-18T11:52:08.634Z,2.90
2022-10-18T11:55:06.022Z,3.42
2022-10-18T11:57:47.399Z,3.28
2022-10-18T12:03:16.958Z,3.70
2022-10-18T12:05:48.139Z,3.47
2022-10-18T12:08:19.412Z,3.38
2022-10-18T12:11:04.490Z,3.67
2022-10-18T12:13:40.090Z,3.03
2022-10-18T12:16:10.440Z,2.70
2022-10-18T12:18:48.088Z,3.38
2022-10-18T12:21:16.430Z,3.30
2022-10-18T12:23:50.553Z,3.60
2022-10-18T12:26:20.524Z,3.55
2022-10-18T12:28:57.429Z,2.92
2022-10-18T12:31:29.971Z,3.42
2022-10-18T12:34:01.290Z,4.20
2022-10-18T12:36:55.045Z,3.58
2022-10-18T12:39:37.511Z,3.60
2022-10-18T12:42:22.655Z,3.38
2022-10-18T12:44:51.003Z,3.20
2022-10-18T12:47:24.088Z,3.30
2022-10-18T12:49:58.748Z,3.05
2022-10-18T12:52:29.038Z,2.90
2022-10-18T12:55:27.148Z,3.30
2022-10-18T12:58:28.208Z,2.83
2022-10-18T13:01:07.219Z,2.53
2022-10-18T13:03:52.305Z,2.60
2022-10-18T13:06:20.646Z,2.67
2022-10-18T13:08:51.038Z,2.30
2022-10-18T13:11:36.772Z,2.30
2022-10-18T13:14:35.429Z,2.60
2022-10-18T13:17:13.450Z,2.47
2022-10-18T13:20:07.609Z,2.47
2022-10-18T13:22:54.622Z,2.47
2022-10-18T13:25:27.431Z,3.22
2022-10-18T13:28:02.981Z,2.60
2022-10-18T13:30:46.205Z,2.58
2022-10-18T13:33:31.569Z,2.60
2022-10-18T13:36:01.364Z,2.60
2022-10-18T13:38:47.060Z,2.38
2022-10-18T13:41:17.578Z,2.58
2022-10-18T13:44:13.565Z,3.10
2022-10-18T13:47:11.965Z,2.47
2022-10-18T13:49:54.874Z,2.90
2022-10-18T13:52:38.789Z,2.55
2022-10-18T13:55:37.986Z,2.85
2022-10-18T13:58:14.563Z,2.50
2022-10-18T14:01:01.482Z,2.90
2022-10-18T14:03:56.846Z,2.80
2022-10-18T14:06:27.976Z,2.42
2022-10-18T14:09:06.307Z,2.70
2022-10-18T14:11:46.354Z,2.65
2022-10-18T14:14:18.860Z,2.88
2022-10-18T14:16:51.394Z,2.80
2022-10-18T14:19:26.690Z,2.78
2022-10-18T14:22:00.345Z,2.95
2022-10-18T14:24:30.529Z,2.90
2022-10-18T14:27:18.031Z,3.42
2022-10-18T14:29:46.497Z,2.88
2022-10-18T14:32:25.371Z,2.90
2022-10-18T14:35:09.187Z,2.78
2022-10-18T14:37:42.842Z,3.10
2022-10-18T14:40:27.812Z,2.83
2022-10-18T14:42:55.668Z,2.63
2022-10-18T14:45:24.838Z,2.50
2022-10-18T14:47:52.698Z,2.72
2022-10-18T14:50:30.705Z,2.45
2022-10-18T14:52:59.220Z,2.75
2022-10-18T14:55:28.772Z,2.55
2022-10-18T14:57:59.776Z,2.42
2022-10-18T15:00:35.897Z,2.88
2022-10-18T15:03:05.906Z,2.80
2022-10-18T15:05:35.078Z,3.00
2022-10-18T15:08:03.586Z,2.80
2022-10-18T15:10:33.117Z,2.53
2022-10-18T15:13:09.871Z,2.85
2022-10-18T15:15:39.685Z,2.88
2022-10-18T15:18:09.086Z,2.45
2022-10-18T15:20:42.340Z,2.90
2022-10-18T15:23:24.312Z,2.40
2022-10-18T15:25:52.846Z,3.75
2022-10-18T15:28:29.846Z,2.78
2022-10-18T15:30:58.768Z,2.58
2022-10-18T15:33:27.907Z,2.50
2022-10-18T15:35:57.123Z,2.63
2022-10-18T15:38:27.969Z,2.92
2022-10-18T15:40:56.032Z,3.08
2022-10-18T15:43:39.856Z,2.65
2022-10-18T15:46:07.904Z,3.08
2022-10-18T15:48:38.891Z,2.90
2022-10-18T15:51:09.715Z,2.80
2022-10-18T15:53:44.781Z,2.78
2022-10-18T15:56:28.662Z,3.05
2022-10-18T15:58:58.338Z,3.50
2022-10-18T16:01:33.584Z,4.03
2022-10-18T16:04:05.408Z,3.40
2022-10-18T16:06:38.418Z,2.95
2022-10-18T16:09:06.834Z,4.05
2022-10-18T16:11:34.657Z,3.85
2022-10-18T16:14:02.488Z,4.15
2022-10-18T16:16:30.703Z,3.85
2022-10-18T16:18:58.933Z,4.20
2022-10-18T16:21:29.435Z,3.92
2022-10-18T16:23:59.309Z,3.80
2022-10-18T16:26:28.111Z,3.80
2022-10-18T16:28:56.207Z,3.35
2022-10-18T16:31:26.354Z,3.65
2022-10-18T16:33:55.534Z,3.70
2022-10-18T16:36:25.322Z,4.35
2022-10-18T16:38:54.920Z,3.83
2022-10-18T16:41:24.759Z,4.05
2022-10-18T16:43:52.708Z,3.95
2022-10-18T16:46:22.750Z,4.30
2022-10-18T16:48:52.164Z,4.47
2022-10-18T16:51:19.991Z,4.57
2022-10-18T16:53:48.529Z,4.50
2022-10-18T16:56:18.051Z,4.45
2022-10-18T16:58:47.673Z,4.05
2022-10-18T17:01:16.929Z,4.20
2022-10-18T17:03:45.296Z,5.15
2022-10-18T17:06:17.346Z,4.28
2022-10-18T17:08:45.659Z,4.38
2022-10-18T17:11:15.377Z,4.85
2022-10-18T17:13:43.564Z,4.53
2022-10-18T17:16:23.692Z,4.88
2022-10-18T17:18:52.151Z,4.90
2022-10-18T17:21:20.042Z,5.00
2022-10-18T17:23:48.922Z,4.55
2022-10-18T17:26:28.411Z,5.45
2022-10-18T17:29:00.230Z,5.10
2022-10-18T17:31:30.259Z,4.95
2022-10-18T17:33:59.724Z,4.82
2022-10-18T17:36:27.640Z,4.03
2022-10-18T17:38:55.820Z,4.63
2022-10-18T17:41:23.850Z,5.57
2022-10-18T17:43:51.669Z,6.05
2022-10-18T17:46:20.174Z,4.65
2022-10-18T17:48:49.401Z,5.28
2022-10-18T17:51:18.419Z,4.53
2022-10-18T17:53:46.573Z,4.45
2022-10-18T17:56:14.818Z,6.32
2022-10-18T17:58:44.156Z,6.57
2022-10-18T18:01:14.212Z,5.85
2022-10-18T18:03:42.488Z,4.78
2022-10-18T18:06:20.022Z,4.63
2022-10-18T18:08:49.166Z,4.65
2022-10-18T18:11:18.384Z,5.07
2022-10-18T18:13:46.302Z,5.35
2022-10-18T18:16:16.258Z,4.93
2022-10-18T18:18:44.535Z,5.70
2022-10-18T18:21:12.493Z,5.85
2022-10-18T18:23:41.742Z,8.95
2022-10-18T18:26:09.840Z,7.75
2022-10-18T18:28:38.276Z,6.72
2022-10-18T18:31:07.818Z,6.03
2022-10-18T18:33:36.268Z,5.97
2022-10-18T18:36:06.621Z,5.80
2022-10-18T18:38:35.513Z,6.43
2022-10-18T18:41:06.401Z,6.30
2022-10-18T18:43:34.322Z,6.10
2022-10-18T18:46:02.194Z,5.60
2022-10-18T18:48:30.269Z,7.10
2022-10-18T18:50:58.136Z,6.25
2022-10-18T18:53:29.503Z,5.82
2022-10-18T18:56:02.567Z,5.80
2022-10-18T18:58:31.825Z,6.82
2022-10-18T19:00:59.689Z,6.03
2022-10-18T19:03:27.568Z,6.35
2022-10-18T19:06:03.731Z,6.00
2022-10-18T19:08:31.567Z,7.20
2022-10-18T19:10:59.392Z,7.10
2022-10-18T19:13:27.231Z,6.38
2022-10-18T19:16:20.208Z,6.38
2022-10-18T19:18:52.652Z,7.20
2022-10-18T19:21:20.862Z,6.57
2022-10-18T19:23:48.825Z,5.90
2022-10-18T19:26:31.929Z,6.47
2022-10-18T19:29:06.190Z,6.90
2022-10-18T19:31:36.051Z,6.63
2022-10-18T19:34:05.222Z,6.05
2022-10-18T19:36:33.526Z,6.40
2022-10-18T19:39:01.888Z,6.53
2022-10-18T19:41:29.839Z,6.50
2022-10-18T19:43:58.312Z,6.47
2022-10-18T19:46:26.425Z,6.75
2022-10-18T19:48:55.672Z,6.57
2022-10-18T19:51:27.022Z,6.78
2022-10-18T19:53:56.053Z,6.35
2022-10-18T19:56:25.730Z,6.20
2022-10-18T19:58:53.879Z,5.95
2022-10-18T20:01:21.816Z,6.47
2022-10-18T20:03:49.942Z,6.82
2022-10-18T20:06:19.460Z,6.43
2022-10-18T20:08:47.908Z,6.20
2022-10-18T20:11:17.758Z,6.30
2022-10-18T20:13:45.697Z,7.03
2022-10-18T20:16:15.034Z,7.30
2022-10-18T20:18:44.008Z,6.55
2022-10-18T20:21:13.667Z,9.18
2022-10-18T20:23:44.642Z,10.93
2022-10-18T20:26:19.656Z,10.48
2022-10-18T20:28:55.623Z,9.68
2022-10-18T20:31:25.189Z,8.73
2022-10-18T20:33:55.777Z,8.70
2022-10-18T20:36:23.625Z,9.15
2022-10-18T20:38:53.219Z,8.73
2022-10-18T20:41:23.034Z,8.13
2022-10-18T20:43:55.230Z,8.98
2022-10-18T20:48:51.742Z,7.95
2022-10-18T20:51:19.923Z,7.97
2022-10-18T20:53:47.809Z,8.50
2022-10-18T20:56:20.128Z,8.80
2022-10-18T20:58:49.300Z,9.07
2022-10-18T21:01:19.414Z,9.00
2022-10-18T21:03:48.686Z,8.73
2022-10-18T21:06:17.867Z,9.10
2022-10-18T21:08:46.105Z,8.52
2022-10-18T21:11:15.754Z,9.30
2022-10-18T21:13:43.582Z,9.07
2022-10-18T21:16:11.393Z,8.90
2022-10-18T21:18:40.369Z,8.85
2022-10-18T21:21:10.194Z,8.60
2022-10-18T21:23:38.258Z,8.55
2022-10-18T21:26:06.420Z,7.68
2022-10-18T21:28:35.937Z,8.05
2022-10-18T21:31:12.639Z,7.50
2022-10-18T21:33:40.961Z,7.30
2022-10-18T21:36:09.862Z,7.25
2022-10-18T21:38:38.044Z,7.43
2022-10-18T21:41:10.462Z,6.70
2022-10-18T21:43:40.759Z,6.30
2022-10-18T21:46:09.981Z,7.47
2022-10-18T21:48:38.192Z,7.03
2022-10-18T21:51:07.293Z,7.47
2022-10-18T21:53:35.190Z,6.85
2022-10-18T21:56:07.738Z,7.90
2022-10-18T21:58:36.068Z,7.32
2022-10-18T22:01:08.633Z,7.78
2022-10-18T22:03:36.631Z,7.25
2022-10-18T22:06:12.720Z,7.00
2022-10-18T22:08:40.974Z,7.05
2022-10-18T22:11:09.256Z,7.85
2022-10-18T22:13:37.061Z,7.85
2022-10-18T22:16:07.617Z,7.10
2022-10-18T22:18:36.601Z,7.10
2022-10-18T22:21:06.270Z,6.55
2022-10-18T22:23:34.866Z,7.05
2022-10-18T22:26:04.702Z,6.90
2022-10-18T22:28:32.713Z,6.82
2022-10-18T22:31:00.620Z,7.22
2022-10-18T22:33:30.465Z,6.68
2022-10-18T22:35:58.471Z,7.25
2022-10-18T22:38:26.304Z,7.38
2022-10-18T22:40:54.129Z,7.32
2022-10-18T22:43:21.953Z,7.68
2022-10-18T22:45:49.790Z,7.28
2022-10-18T22:48:17.619Z,7.53
2022-10-18T22:50:46.736Z,6.35
2022-10-18T22:53:14.536Z,6.82
2022-10-18T22:55:42.316Z,6.90
2022-10-18T22:58:10.138Z,7.00
2022-10-18T23:00:39.370Z,7.00
2022-10-18T23:03:07.210Z,7.22
2022-10-18T23:05:39.246Z,7.53
2022-10-18T23:08:09.329Z,7.38
2022-10-18T23:10:38.220Z,7.35
2022-10-18T23:13:06.123Z,7.53
2022-10-18T23:15:34.156Z,7.53
2022-10-18T23:18:02.627Z,7.43
2022-10-18T23:20:30.433Z,7.60
2022-10-18T23:22:58.471Z,7.88
2022-10-18T23:25:28.106Z,7.78
2022-10-18T23:27:56.164Z,7.85
2022-10-18T23:30:24.021Z,7.30
2022-10-18T23:32:51.841Z,8.00
2022-10-18T23:35:19.661Z,8.40
2022-10-18T23:37:47.506Z,7.53
2022-10-18T23:40:15.436Z,7.82
2022-10-18T23:42:44.600Z,8.32
2022-10-18T23:45:12.569Z,7.93
2022-10-18T23:47:40.366Z,8.30
2022-10-18T23:50:09.013Z,7.82
2022-10-18T23:52:36.839Z,7.35
2022-10-18T23:55:05.155Z,7.25
2022-10-18T23:57:33.187Z,7.18
